ANA330 ROMY-RJGG
Flight info
| Callsign | ANA330 |
|---|---|
| Flight time | 1h 58m |
| Altitude | 35000 |
| Route | FREED Y57 YULIA Y575 ALBAT Y755 CARDS |
| Aircraft | B738/M-SDE2E3FGHIRWXY/LB1 |
Departure
| Time | 2026-04-22 22:06 |
|---|---|
| Airport | Miyako Airport (ROMY) |
Arrival
| Time | 2026-04-23 00:04 |
|---|---|
| Airport | Chubu Centrair International Airport (RJGG) |
| Time | Latitude | Longitude | Altitude | Speed | Heading |
|---|---|---|---|---|---|
| 2026-04-22 21:50 | 24.78062 | 125.29748 | 145 ft | 0 kts | 130° |
| 2026-04-22 21:57 | 24.78067 | 125.29737 | 145 ft | 3 kts | 106° |
| 2026-04-22 21:57 | 24.78072 | 125.29715 | 145 ft | 3 kts | 106° |
| 2026-04-22 21:57 | 24.78075 | 125.29703 | 145 ft | 0 kts | 106° |
| 2026-04-22 22:00 | 24.78076 | 125.29717 | 145 ft | 2 kts | 71° |
| 2026-04-22 22:00 | 24.78092 | 125.29720 | 145 ft | 3 kts | 341° |
| 2026-04-22 22:01 | 24.78122 | 125.29708 | 145 ft | 5 kts | 341° |
| 2026-04-22 22:01 | 24.78151 | 125.29685 | 145 ft | 5 kts | 310° |
| 2026-04-22 22:01 | 24.78177 | 125.29650 | 145 ft | 7 kts | 310° |
| 2026-04-22 22:01 | 24.78214 | 125.29599 | 146 ft | 6 kts | 307° |
| 2026-04-22 22:02 | 24.78215 | 125.29598 | 146 ft | 0 kts | 307° |
| 2026-04-22 22:02 | 24.78221 | 125.29589 | 146 ft | 4 kts | 307° |
| 2026-04-22 22:02 | 24.78252 | 125.29547 | 146 ft | 9 kts | 315° |
| 2026-04-22 22:02 | 24.78311 | 125.29546 | 147 ft | 10 kts | 35° |
| 2026-04-22 22:03 | 24.78371 | 125.29595 | 147 ft | 12 kts | 38° |
| 2026-04-22 22:03 | 24.78438 | 125.29653 | 148 ft | 13 kts | 38° |
| 2026-04-22 22:03 | 24.78518 | 125.29721 | 149 ft | 18 kts | 38° |
| 2026-04-22 22:03 | 24.78637 | 125.29823 | 150 ft | 25 kts | 38° |
| 2026-04-22 22:04 | 24.78776 | 125.29941 | 153 ft | 24 kts | 38° |
| 2026-04-22 22:04 | 24.78902 | 125.30057 | 155 ft | 23 kts | 58° |
| 2026-04-22 22:04 | 24.78966 | 125.30138 | 158 ft | 9 kts | 4° |
| 2026-04-22 22:04 | 24.78976 | 125.30120 | 158 ft | 3 kts | 244° |
| 2026-04-22 22:05 | 24.78960 | 125.30098 | 157 ft | 5 kts | 225° |
| 2026-04-22 22:05 | 24.78919 | 125.30063 | 156 ft | 21 kts | 218° |
| 2026-04-22 22:05 | 24.78573 | 125.29764 | 150 ft | 103 kts | 218° |
| 2026-04-22 22:05 | 24.77822 | 125.29114 | 185 ft | 167 kts | 217° |
| 2026-04-22 22:06 | 24.76845 | 125.28267 | 771 ft | 187 kts | 214° |
| 2026-04-22 22:06 | 24.75635 | 125.27872 | 1201 ft | 191 kts | 175° |
| 2026-04-22 22:06 | 24.74262 | 125.28307 | 1599 ft | 220 kts | 164° |
| 2026-04-22 22:06 | 24.72872 | 125.29243 | 1961 ft | 252 kts | 141° |
| 2026-04-22 22:07 | 24.71859 | 125.30895 | 2508 ft | 273 kts | 115° |
| 2026-04-22 22:07 | 24.71607 | 125.33009 | 3182 ft | 287 kts | 85° |
| 2026-04-22 22:07 | 24.72249 | 125.35080 | 4081 ft | 289 kts | 63° |
| 2026-04-22 22:07 | 24.73323 | 125.36954 | 4933 ft | 291 kts | 56° |
| 2026-04-22 22:08 | 24.74518 | 125.38769 | 5658 ft | 295 kts | 54° |
| 2026-04-22 22:08 | 24.75749 | 125.40592 | 6390 ft | 298 kts | 53° |
| 2026-04-22 22:08 | 24.76988 | 125.42434 | 7070 ft | 301 kts | 53° |
| 2026-04-22 22:08 | 24.78233 | 125.44307 | 7763 ft | 305 kts | 53° |
| 2026-04-22 22:09 | 24.79477 | 125.46201 | 8466 ft | 307 kts | 54° |
| 2026-04-22 22:09 | 24.80715 | 125.48103 | 9136 ft | 311 kts | 54° |
| 2026-04-22 22:09 | 24.81975 | 125.50049 | 9789 ft | 315 kts | 54° |
| 2026-04-22 22:09 | 24.83267 | 125.52056 | 10199 ft | 329 kts | 54° |
| 2026-04-22 22:10 | 24.84631 | 125.54179 | 10350 ft | 350 kts | 54° |
| 2026-04-22 22:10 | 24.86076 | 125.56435 | 10505 ft | 370 kts | 54° |
| 2026-04-22 22:10 | 24.87595 | 125.58811 | 10639 ft | 388 kts | 54° |
| 2026-04-22 22:10 | 24.89180 | 125.61295 | 10782 ft | 404 kts | 54° |
| 2026-04-22 22:11 | 24.90811 | 125.63856 | 11129 ft | 412 kts | 54° |
| 2026-04-22 22:11 | 24.92464 | 125.66452 | 11612 ft | 415 kts | 54° |
| 2026-04-22 22:11 | 24.94127 | 125.69066 | 12125 ft | 418 kts | 54° |
| 2026-04-22 22:11 | 24.95802 | 125.71701 | 12625 ft | 421 kts | 54° |
| 2026-04-22 22:12 | 24.97488 | 125.74355 | 13106 ft | 424 kts | 53° |
| 2026-04-22 22:12 | 24.99187 | 125.77029 | 13564 ft | 428 kts | 53° |
| 2026-04-22 22:12 | 25.00900 | 125.79728 | 13978 ft | 431 kts | 53° |
| 2026-04-22 22:12 | 25.02602 | 125.82410 | 14409 ft | 433 kts | 53° |
| 2026-04-22 22:13 | 25.04332 | 125.85138 | 14845 ft | 435 kts | 53° |
| 2026-04-22 22:13 | 25.06067 | 125.87875 | 15250 ft | 437 kts | 53° |
| 2026-04-22 22:13 | 25.07817 | 125.90637 | 15642 ft | 440 kts | 53° |
| 2026-04-22 22:13 | 25.09576 | 125.93414 | 16016 ft | 443 kts | 53° |
| 2026-04-22 22:14 | 25.11344 | 125.96209 | 16407 ft | 445 kts | 53° |
| 2026-04-22 22:14 | 25.13121 | 125.99018 | 16778 ft | 448 kts | 53° |
| 2026-04-22 22:14 | 25.14911 | 126.01850 | 17146 ft | 450 kts | 53° |
| 2026-04-22 22:14 | 25.16706 | 126.04692 | 17494 ft | 453 kts | 53° |
| 2026-04-22 22:15 | 25.18512 | 126.07553 | 17832 ft | 456 kts | 53° |
| 2026-04-22 22:15 | 25.20331 | 126.10436 | 18164 ft | 458 kts | 53° |
| 2026-04-22 22:15 | 25.22152 | 126.13325 | 18442 ft | 460 kts | 53° |
| 2026-04-22 22:15 | 25.23986 | 126.16236 | 18734 ft | 462 kts | 53° |
| 2026-04-22 22:16 | 25.25825 | 126.19156 | 19013 ft | 464 kts | 53° |
| 2026-04-22 22:16 | 25.27676 | 126.22097 | 19286 ft | 467 kts | 53° |
| 2026-04-22 22:16 | 25.29535 | 126.25053 | 19550 ft | 469 kts | 53° |
| 2026-04-22 22:16 | 25.31397 | 126.28015 | 19829 ft | 471 kts | 53° |
| 2026-04-22 22:17 | 25.33267 | 126.30993 | 20101 ft | 473 kts | 53° |
| 2026-04-22 22:17 | 25.35148 | 126.33990 | 20346 ft | 475 kts | 53° |
| 2026-04-22 22:17 | 25.37035 | 126.36998 | 20592 ft | 477 kts | 53° |
| 2026-04-22 22:17 | 25.38931 | 126.40023 | 20839 ft | 479 kts | 53° |
| 2026-04-22 22:18 | 25.40810 | 126.43022 | 21087 ft | 481 kts | 53° |
| 2026-04-22 22:18 | 25.42743 | 126.46109 | 21331 ft | 483 kts | 53° |
| 2026-04-22 22:18 | 25.44634 | 126.49133 | 21558 ft | 485 kts | 53° |
| 2026-04-22 22:18 | 25.46559 | 126.52210 | 21791 ft | 487 kts | 53° |
| 2026-04-22 22:19 | 25.48473 | 126.55307 | 22013 ft | 489 kts | 55° |
| 2026-04-22 22:19 | 25.50294 | 126.58491 | 22236 ft | 491 kts | 57° |
| 2026-04-22 22:19 | 25.52059 | 126.61742 | 22450 ft | 493 kts | 58° |
| 2026-04-22 22:19 | 25.53809 | 126.65015 | 22671 ft | 495 kts | 58° |
| 2026-04-22 22:20 | 25.55568 | 126.68298 | 22879 ft | 496 kts | 58° |
| 2026-04-22 22:20 | 25.57344 | 126.71585 | 23078 ft | 498 kts | 58° |
| 2026-04-22 22:20 | 25.59134 | 126.74873 | 23271 ft | 500 kts | 58° |
| 2026-04-22 22:20 | 25.60937 | 126.78170 | 23461 ft | 501 kts | 57° |
| 2026-04-22 22:21 | 25.62746 | 126.81475 | 23620 ft | 503 kts | 57° |
| 2026-04-22 22:21 | 25.64563 | 126.84797 | 23799 ft | 504 kts | 57° |
| 2026-04-22 22:21 | 25.66376 | 126.88118 | 23983 ft | 504 kts | 57° |
| 2026-04-22 22:21 | 25.68192 | 126.91446 | 24177 ft | 505 kts | 57° |
| 2026-04-22 22:22 | 25.70010 | 126.94781 | 24340 ft | 506 kts | 57° |
| 2026-04-22 22:22 | 25.71827 | 126.98118 | 24504 ft | 507 kts | 57° |
| 2026-04-22 22:22 | 25.73651 | 127.01470 | 24667 ft | 507 kts | 57° |
| 2026-04-22 22:22 | 25.75472 | 127.04820 | 24824 ft | 508 kts | 57° |
| 2026-04-22 22:23 | 25.77302 | 127.08189 | 24969 ft | 510 kts | 57° |
| 2026-04-22 22:23 | 25.79131 | 127.11558 | 25120 ft | 511 kts | 57° |
| 2026-04-22 22:23 | 25.80967 | 127.14943 | 25263 ft | 512 kts | 57° |
| 2026-04-22 22:23 | 25.82801 | 127.18328 | 25405 ft | 513 kts | 57° |
| 2026-04-22 22:24 | 25.84639 | 127.21722 | 25555 ft | 514 kts | 57° |
| 2026-04-22 22:24 | 25.86459 | 127.25086 | 25687 ft | 515 kts | 57° |
| 2026-04-22 22:24 | 25.88305 | 127.28499 | 25821 ft | 516 kts | 57° |
| 2026-04-22 22:24 | 25.90152 | 127.31916 | 25959 ft | 517 kts | 57° |
| 2026-04-22 22:25 | 25.92005 | 127.35342 | 26096 ft | 518 kts | 57° |
| 2026-04-22 22:25 | 25.93864 | 127.38777 | 26228 ft | 519 kts | 56° |
| 2026-04-22 22:25 | 25.95725 | 127.42218 | 26352 ft | 520 kts | 56° |
| 2026-04-22 22:25 | 25.97587 | 127.45664 | 26475 ft | 521 kts | 56° |
| 2026-04-22 22:26 | 25.99454 | 127.49124 | 26616 ft | 521 kts | 56° |
| 2026-04-22 22:26 | 26.01316 | 127.52578 | 26828 ft | 521 kts | 56° |
| 2026-04-22 22:26 | 26.03172 | 127.56024 | 27028 ft | 520 kts | 56° |
| 2026-04-22 22:26 | 26.05027 | 127.59471 | 27230 ft | 519 kts | 56° |
| 2026-04-22 22:27 | 26.06880 | 127.62917 | 27408 ft | 519 kts | 56° |
| 2026-04-22 22:27 | 26.08733 | 127.66364 | 27606 ft | 519 kts | 57° |
| 2026-04-22 22:27 | 26.09962 | 127.68653 | 27745 ft | 519 kts | 57° |
| 2026-04-22 22:27 | 26.11809 | 127.72093 | 27971 ft | 518 kts | 57° |
| 2026-04-22 22:28 | 26.13664 | 127.75550 | 28189 ft | 518 kts | 57° |
| 2026-04-22 22:28 | 26.16339 | 127.79913 | 28461 ft | 515 kts | 47° |
| 2026-04-22 22:28 | 26.17939 | 127.81915 | 28600 ft | 512 kts | 41° |
| 2026-04-22 22:28 | 26.20591 | 127.84528 | 28836 ft | 508 kts | 36° |
| 2026-04-22 22:29 | 26.23322 | 127.87031 | 29087 ft | 507 kts | 35° |
| 2026-04-22 22:29 | 26.26051 | 127.89506 | 29290 ft | 507 kts | 35° |
| 2026-04-22 22:29 | 26.28756 | 127.91967 | 29491 ft | 507 kts | 36° |
| 2026-04-22 22:29 | 26.31480 | 127.94468 | 29729 ft | 507 kts | 36° |
| 2026-04-22 22:30 | 26.34191 | 127.96978 | 29960 ft | 507 kts | 36° |
| 2026-04-22 22:30 | 26.36898 | 127.99502 | 30161 ft | 507 kts | 36° |
| 2026-04-22 22:30 | 26.39591 | 128.02023 | 30379 ft | 506 kts | 36° |
| 2026-04-22 22:30 | 26.42288 | 128.04553 | 30597 ft | 506 kts | 36° |
| 2026-04-22 22:31 | 26.44975 | 128.07076 | 30797 ft | 506 kts | 36° |
| 2026-04-22 22:31 | 26.47676 | 128.09613 | 31007 ft | 505 kts | 36° |
| 2026-04-22 22:31 | 26.50363 | 128.12136 | 31234 ft | 504 kts | 36° |
| 2026-04-22 22:31 | 26.53044 | 128.14655 | 31465 ft | 504 kts | 36° |
| 2026-04-22 22:32 | 26.55727 | 128.17177 | 31681 ft | 503 kts | 36° |
| 2026-04-22 22:32 | 26.58409 | 128.19699 | 31894 ft | 503 kts | 36° |
| 2026-04-22 22:32 | 26.61084 | 128.22216 | 32113 ft | 503 kts | 36° |
| 2026-04-22 22:32 | 26.63724 | 128.24702 | 32335 ft | 502 kts | 36° |
| 2026-04-22 22:33 | 26.66397 | 128.27219 | 32551 ft | 502 kts | 36° |
| 2026-04-22 22:33 | 26.69072 | 128.29741 | 32751 ft | 502 kts | 35° |
| 2026-04-22 22:33 | 26.71745 | 128.32262 | 32958 ft | 502 kts | 35° |
| 2026-04-22 22:33 | 26.74412 | 128.34781 | 33183 ft | 502 kts | 35° |
| 2026-04-22 22:34 | 26.77074 | 128.37295 | 33411 ft | 501 kts | 35° |
| 2026-04-22 22:34 | 26.79738 | 128.39813 | 33636 ft | 501 kts | 35° |
| 2026-04-22 22:34 | 26.82403 | 128.42334 | 33854 ft | 500 kts | 35° |
| 2026-04-22 22:34 | 26.85060 | 128.44848 | 34045 ft | 500 kts | 35° |
| 2026-04-22 22:35 | 26.87709 | 128.47357 | 34238 ft | 499 kts | 35° |
| 2026-04-22 22:35 | 26.90364 | 128.49873 | 34414 ft | 499 kts | 35° |
| 2026-04-22 22:35 | 26.93013 | 128.52384 | 34594 ft | 499 kts | 35° |
| 2026-04-22 22:35 | 26.95655 | 128.54892 | 34793 ft | 498 kts | 35° |
| 2026-04-22 22:36 | 26.98314 | 128.57415 | 34804 ft | 501 kts | 35° |
| 2026-04-22 22:36 | 27.03589 | 128.62427 | 34821 ft | 499 kts | 36° |
| 2026-04-22 22:37 | 27.08871 | 128.67456 | 34794 ft | 496 kts | 34° |
| 2026-04-22 22:37 | 27.14125 | 128.72462 | 34819 ft | 496 kts | 34° |
| 2026-04-22 22:38 | 27.19432 | 128.77518 | 34821 ft | 504 kts | 34° |
| 2026-04-22 22:38 | 27.24796 | 128.82640 | 34810 ft | 507 kts | 34° |
| 2026-04-22 22:39 | 27.30171 | 128.87785 | 34805 ft | 508 kts | 34° |
| 2026-04-22 22:39 | 27.35565 | 128.92953 | 34801 ft | 508 kts | 34° |
| 2026-04-22 22:40 | 27.40937 | 128.98107 | 34808 ft | 507 kts | 34° |
| 2026-04-22 22:40 | 27.46303 | 129.03261 | 34818 ft | 506 kts | 34° |
| 2026-04-22 22:41 | 27.51612 | 129.08366 | 34828 ft | 504 kts | 34° |
| 2026-04-22 22:41 | 27.56494 | 129.14115 | 34841 ft | 510 kts | 45° |
| 2026-04-22 22:42 | 27.60976 | 129.20312 | 34834 ft | 510 kts | 46° |
| 2026-04-22 22:42 | 27.65437 | 129.26523 | 34826 ft | 508 kts | 45° |
| 2026-04-22 22:43 | 27.69916 | 129.32680 | 34835 ft | 507 kts | 45° |
| 2026-04-22 22:43 | 27.74406 | 129.38810 | 34827 ft | 507 kts | 45° |
| 2026-04-22 22:44 | 27.78900 | 129.44943 | 34830 ft | 507 kts | 45° |
| 2026-04-22 22:44 | 27.83395 | 129.51091 | 34829 ft | 507 kts | 45° |
| 2026-04-22 22:45 | 27.87856 | 129.57205 | 34833 ft | 508 kts | 45° |
| 2026-04-22 22:45 | 27.92362 | 129.63389 | 34828 ft | 509 kts | 45° |
| 2026-04-22 22:46 | 27.96857 | 129.69570 | 34827 ft | 510 kts | 45° |
| 2026-04-22 22:46 | 28.01358 | 129.75767 | 34825 ft | 510 kts | 45° |
| 2026-04-22 22:47 | 28.05856 | 129.81968 | 34816 ft | 511 kts | 46° |
| 2026-04-22 22:47 | 28.10359 | 129.88187 | 34806 ft | 511 kts | 46° |
| 2026-04-22 22:48 | 28.14838 | 129.94381 | 34794 ft | 511 kts | 46° |
| 2026-04-22 22:48 | 28.19344 | 130.00621 | 34791 ft | 511 kts | 46° |
| 2026-04-22 22:49 | 28.23836 | 130.06851 | 34794 ft | 510 kts | 46° |
| 2026-04-22 22:49 | 28.28329 | 130.13091 | 34796 ft | 510 kts | 46° |
| 2026-04-22 22:50 | 28.32814 | 130.19329 | 34800 ft | 509 kts | 46° |
| 2026-04-22 22:50 | 28.37291 | 130.25566 | 34812 ft | 509 kts | 46° |
| 2026-04-22 22:51 | 28.41761 | 130.31801 | 34816 ft | 509 kts | 46° |
| 2026-04-22 22:51 | 28.46232 | 130.38048 | 34818 ft | 509 kts | 46° |
| 2026-04-22 22:52 | 28.50704 | 130.44305 | 34817 ft | 509 kts | 46° |
| 2026-04-22 22:52 | 28.55138 | 130.50519 | 34816 ft | 510 kts | 46° |
| 2026-04-22 22:53 | 28.59607 | 130.56790 | 34814 ft | 510 kts | 47° |
| 2026-04-22 22:53 | 28.64076 | 130.63071 | 34813 ft | 511 kts | 47° |
| 2026-04-22 22:54 | 28.68551 | 130.69370 | 34814 ft | 511 kts | 47° |
| 2026-04-22 22:54 | 28.73020 | 130.75670 | 34815 ft | 511 kts | 47° |
| 2026-04-22 22:55 | 28.77490 | 130.81980 | 34811 ft | 512 kts | 47° |
| 2026-04-22 22:55 | 28.84187 | 130.91454 | 34808 ft | 511 kts | 47° |
| 2026-04-22 22:56 | 28.88652 | 130.97781 | 34809 ft | 511 kts | 47° |
| 2026-04-22 22:56 | 28.93106 | 131.04103 | 34805 ft | 511 kts | 46° |
| 2026-04-22 22:57 | 28.97563 | 131.10439 | 34806 ft | 511 kts | 46° |
| 2026-04-22 22:57 | 29.01986 | 131.16736 | 34808 ft | 511 kts | 46° |
| 2026-04-22 22:58 | 29.06433 | 131.23076 | 34808 ft | 511 kts | 46° |
| 2026-04-22 22:58 | 29.10899 | 131.29454 | 34807 ft | 511 kts | 47° |
| 2026-04-22 22:59 | 29.15312 | 131.35767 | 34809 ft | 511 kts | 47° |
| 2026-04-22 22:59 | 29.19743 | 131.42114 | 34804 ft | 510 kts | 47° |
| 2026-04-22 23:00 | 29.24173 | 131.48470 | 34803 ft | 510 kts | 47° |
| 2026-04-22 23:00 | 29.28584 | 131.54807 | 34802 ft | 509 kts | 47° |
| 2026-04-22 23:01 | 29.32992 | 131.61151 | 34805 ft | 508 kts | 47° |
| 2026-04-22 23:01 | 29.37392 | 131.67493 | 34808 ft | 508 kts | 47° |
| 2026-04-22 23:02 | 29.41798 | 131.73853 | 34807 ft | 509 kts | 47° |
| 2026-04-22 23:02 | 29.46198 | 131.80214 | 34811 ft | 510 kts | 47° |
| 2026-04-22 23:03 | 29.50609 | 131.86602 | 34813 ft | 511 kts | 47° |
| 2026-04-22 23:03 | 29.55026 | 131.93008 | 34816 ft | 513 kts | 47° |
| 2026-04-22 23:04 | 29.59443 | 131.99425 | 34813 ft | 515 kts | 47° |
| 2026-04-22 23:04 | 29.63893 | 132.05901 | 34821 ft | 517 kts | 48° |
| 2026-04-22 23:05 | 29.68387 | 132.12363 | 34818 ft | 518 kts | 47° |
| 2026-04-22 23:05 | 29.72976 | 132.18763 | 34818 ft | 518 kts | 47° |
| 2026-04-22 23:06 | 29.77563 | 132.25150 | 34809 ft | 517 kts | 47° |
| 2026-04-22 23:06 | 29.82130 | 132.31550 | 34811 ft | 516 kts | 47° |
| 2026-04-22 23:07 | 29.86666 | 132.37936 | 34810 ft | 514 kts | 47° |
| 2026-04-22 23:07 | 29.91192 | 132.44319 | 34810 ft | 513 kts | 47° |
| 2026-04-22 23:08 | 29.95700 | 132.50687 | 34810 ft | 512 kts | 47° |
| 2026-04-22 23:08 | 30.00208 | 132.57062 | 34808 ft | 513 kts | 47° |
| 2026-04-22 23:09 | 30.04675 | 132.63390 | 34812 ft | 513 kts | 47° |
| 2026-04-22 23:09 | 30.09188 | 132.69793 | 34808 ft | 514 kts | 47° |
| 2026-04-22 23:10 | 30.13706 | 132.76214 | 34812 ft | 516 kts | 47° |
| 2026-04-22 23:10 | 30.18243 | 132.82670 | 34816 ft | 519 kts | 47° |
| 2026-04-22 23:11 | 30.22798 | 132.89165 | 34815 ft | 521 kts | 47° |
| 2026-04-22 23:11 | 30.27379 | 132.95707 | 34810 ft | 524 kts | 48° |
| 2026-04-22 23:12 | 30.31969 | 133.02273 | 34809 ft | 525 kts | 48° |
| 2026-04-22 23:12 | 30.36569 | 133.08866 | 34810 ft | 527 kts | 48° |
| 2026-04-22 23:13 | 30.41171 | 133.15470 | 34802 ft | 527 kts | 48° |
| 2026-04-22 23:13 | 30.45742 | 133.22043 | 34808 ft | 527 kts | 47° |
| 2026-04-22 23:14 | 30.50346 | 133.28673 | 34808 ft | 527 kts | 47° |
| 2026-04-22 23:14 | 30.54940 | 133.35300 | 34808 ft | 527 kts | 47° |
| 2026-04-22 23:15 | 30.59527 | 133.41927 | 34869 ft | 527 kts | 47° |
| 2026-04-22 23:15 | 30.61819 | 133.45243 | 35073 ft | 527 kts | 47° |
| 2026-04-22 23:15 | 30.64111 | 133.48562 | 35331 ft | 524 kts | 47° |
| 2026-04-22 23:16 | 30.66384 | 133.51858 | 35590 ft | 522 kts | 47° |
| 2026-04-22 23:16 | 30.68652 | 133.55148 | 35808 ft | 521 kts | 47° |
| 2026-04-22 23:16 | 30.70913 | 133.58430 | 36004 ft | 520 kts | 47° |
| 2026-04-22 23:16 | 30.73178 | 133.61721 | 36227 ft | 519 kts | 47° |
| 2026-04-22 23:17 | 30.74665 | 133.63883 | 36385 ft | 517 kts | 47° |
| 2026-04-22 23:17 | 30.76907 | 133.67145 | 36582 ft | 516 kts | 47° |
| 2026-04-22 23:17 | 30.79151 | 133.70411 | 36757 ft | 516 kts | 47° |
| 2026-04-22 23:17 | 30.81396 | 133.73681 | 36807 ft | 518 kts | 47° |
| 2026-04-22 23:18 | 30.85897 | 133.80243 | 36815 ft | 519 kts | 47° |
| 2026-04-22 23:18 | 30.90387 | 133.86806 | 36804 ft | 517 kts | 47° |
| 2026-04-22 23:19 | 30.94854 | 133.93346 | 36812 ft | 515 kts | 47° |
| 2026-04-22 23:19 | 30.99275 | 133.99828 | 36815 ft | 513 kts | 47° |
| 2026-04-22 23:20 | 31.03709 | 134.06339 | 36818 ft | 512 kts | 47° |
| 2026-04-22 23:20 | 31.08137 | 134.12854 | 36819 ft | 512 kts | 47° |
| 2026-04-22 23:21 | 31.12562 | 134.19373 | 36826 ft | 513 kts | 47° |
| 2026-04-22 23:21 | 31.16992 | 134.25913 | 36825 ft | 514 kts | 47° |
| 2026-04-22 23:22 | 31.21428 | 134.32471 | 36827 ft | 515 kts | 47° |
| 2026-04-22 23:22 | 31.25879 | 134.39063 | 36834 ft | 517 kts | 47° |
| 2026-04-22 23:23 | 31.30339 | 134.45680 | 36835 ft | 519 kts | 47° |
| 2026-04-22 23:23 | 31.34818 | 134.52335 | 36837 ft | 521 kts | 47° |
| 2026-04-22 23:24 | 31.39310 | 134.59024 | 36834 ft | 523 kts | 47° |
| 2026-04-22 23:24 | 31.43783 | 134.65695 | 36837 ft | 525 kts | 47° |
| 2026-04-22 23:25 | 31.48292 | 134.72432 | 36850 ft | 526 kts | 47° |
| 2026-04-22 23:25 | 31.52803 | 134.79184 | 36842 ft | 526 kts | 47° |
| 2026-04-22 23:26 | 31.57310 | 134.85942 | 36839 ft | 526 kts | 47° |
| 2026-04-22 23:26 | 31.61808 | 134.92698 | 36844 ft | 525 kts | 47° |
| 2026-04-22 23:27 | 31.66299 | 134.99456 | 36847 ft | 525 kts | 47° |
| 2026-04-22 23:27 | 31.71252 | 135.05584 | 36853 ft | 508 kts | 27° |
| 2026-04-22 23:28 | 31.74255 | 135.07653 | 36850 ft | 496 kts | 16° |
| 2026-04-22 23:28 | 31.77442 | 135.09034 | 36847 ft | 481 kts | 3° |
| 2026-04-22 23:28 | 31.83910 | 135.10399 | 36851 ft | 475 kts | 360° |
| 2026-04-22 23:29 | 31.90455 | 135.11740 | 36856 ft | 479 kts | 0° |
| 2026-04-22 23:29 | 31.97035 | 135.13175 | 36855 ft | 482 kts | 1° |
| 2026-04-22 23:30 | 32.03637 | 135.14644 | 36852 ft | 485 kts | 1° |
| 2026-04-22 23:30 | 32.10276 | 135.16114 | 36852 ft | 486 kts | 1° |
| 2026-04-22 23:31 | 32.16953 | 135.17587 | 36852 ft | 488 kts | 1° |
| 2026-04-22 23:31 | 32.23630 | 135.19061 | 36844 ft | 488 kts | 0° |
| 2026-04-22 23:32 | 32.30312 | 135.20540 | 36845 ft | 489 kts | 0° |
| 2026-04-22 23:32 | 32.36999 | 135.22022 | 36846 ft | 488 kts | 0° |
| 2026-04-22 23:33 | 32.43623 | 135.23492 | 36845 ft | 488 kts | 0° |
| 2026-04-22 23:33 | 32.50319 | 135.24981 | 36846 ft | 488 kts | 0° |
| 2026-04-22 23:34 | 32.57001 | 135.26462 | 36851 ft | 487 kts | 0° |
| 2026-04-22 23:34 | 32.63670 | 135.27935 | 36842 ft | 487 kts | 0° |
| 2026-04-22 23:35 | 32.70286 | 135.29400 | 36856 ft | 487 kts | 0° |
| 2026-04-22 23:35 | 32.76952 | 135.30879 | 36857 ft | 487 kts | 0° |
| 2026-04-22 23:36 | 32.83627 | 135.32362 | 36860 ft | 488 kts | 0° |
| 2026-04-22 23:36 | 32.90304 | 135.33849 | 36858 ft | 489 kts | 0° |
| 2026-04-22 23:37 | 32.96987 | 135.35339 | 36864 ft | 489 kts | 0° |
| 2026-04-22 23:37 | 33.03693 | 135.36836 | 36864 ft | 490 kts | 0° |
| 2026-04-22 23:38 | 33.10410 | 135.38339 | 36863 ft | 491 kts | 0° |
| 2026-04-22 23:38 | 33.17136 | 135.39847 | 36868 ft | 492 kts | 0° |
| 2026-04-22 23:39 | 33.23720 | 135.41335 | 36837 ft | 471 kts | 0° |
| 2026-04-22 23:39 | 33.26890 | 135.42055 | 36840 ft | 456 kts | 360° |
| 2026-04-22 23:39 | 33.29970 | 135.42748 | 36848 ft | 446 kts | 359° |
| 2026-04-22 23:40 | 33.36069 | 135.44585 | 36869 ft | 468 kts | 13° |
| 2026-04-22 23:40 | 33.39050 | 135.46341 | 36495 ft | 492 kts | 24° |
| 2026-04-22 23:40 | 33.41898 | 135.48708 | 35865 ft | 505 kts | 31° |
| 2026-04-22 23:41 | 33.44669 | 135.51296 | 35261 ft | 501 kts | 32° |
| 2026-04-22 23:41 | 33.47383 | 135.53908 | 34675 ft | 497 kts | 33° |
| 2026-04-22 23:41 | 33.50067 | 135.56468 | 34097 ft | 492 kts | 32° |
| 2026-04-22 23:41 | 33.52764 | 135.58989 | 33481 ft | 488 kts | 32° |
| 2026-04-22 23:42 | 33.55437 | 135.61446 | 32847 ft | 484 kts | 31° |
| 2026-04-22 23:42 | 33.58120 | 135.63891 | 32229 ft | 480 kts | 31° |
| 2026-04-22 23:42 | 33.60771 | 135.66302 | 31620 ft | 477 kts | 31° |
| 2026-04-22 23:42 | 33.63400 | 135.68698 | 31023 ft | 473 kts | 31° |
| 2026-04-22 23:43 | 33.66011 | 135.71085 | 30435 ft | 469 kts | 31° |
| 2026-04-22 23:43 | 33.68600 | 135.73448 | 29868 ft | 466 kts | 31° |
| 2026-04-22 23:43 | 33.71147 | 135.75756 | 29218 ft | 462 kts | 31° |
| 2026-04-22 23:43 | 33.73704 | 135.78065 | 28558 ft | 459 kts | 31° |
| 2026-04-22 23:44 | 33.76250 | 135.80363 | 27920 ft | 455 kts | 31° |
| 2026-04-22 23:44 | 33.78766 | 135.82638 | 27303 ft | 451 kts | 31° |
| 2026-04-22 23:44 | 33.81266 | 135.84903 | 26678 ft | 448 kts | 31° |
| 2026-04-22 23:44 | 33.83740 | 135.87147 | 26101 ft | 443 kts | 31° |
| 2026-04-22 23:45 | 33.86188 | 135.89370 | 25505 ft | 440 kts | 31° |
| 2026-04-22 23:45 | 33.88618 | 135.91574 | 24930 ft | 436 kts | 32° |
| 2026-04-22 23:45 | 33.91034 | 135.93763 | 24355 ft | 432 kts | 32° |
| 2026-04-22 23:45 | 33.93422 | 135.95929 | 23790 ft | 427 kts | 32° |
| 2026-04-22 23:46 | 33.95784 | 135.98071 | 23217 ft | 423 kts | 32° |
| 2026-04-22 23:46 | 33.98126 | 136.00196 | 22572 ft | 420 kts | 32° |
| 2026-04-22 23:46 | 34.00457 | 136.02312 | 21916 ft | 417 kts | 33° |
| 2026-04-22 23:46 | 34.02759 | 136.04406 | 21304 ft | 413 kts | 33° |
| 2026-04-22 23:47 | 34.05041 | 136.06482 | 20699 ft | 410 kts | 33° |
| 2026-04-22 23:47 | 34.07277 | 136.08518 | 20087 ft | 406 kts | 34° |
| 2026-04-22 23:47 | 34.09521 | 136.10562 | 19487 ft | 403 kts | 34° |
| 2026-04-22 23:47 | 34.11753 | 136.12597 | 18917 ft | 399 kts | 34° |
| 2026-04-22 23:48 | 34.13952 | 136.14606 | 18279 ft | 396 kts | 35° |
| 2026-04-22 23:48 | 34.16144 | 136.16607 | 17630 ft | 393 kts | 35° |
| 2026-04-22 23:48 | 34.18317 | 136.18592 | 16985 ft | 389 kts | 35° |
| 2026-04-22 23:48 | 34.20466 | 136.20552 | 16391 ft | 385 kts | 35° |
| 2026-04-22 23:49 | 34.22601 | 136.22494 | 15764 ft | 383 kts | 35° |
| 2026-04-22 23:49 | 34.24717 | 136.24417 | 15173 ft | 379 kts | 36° |
| 2026-04-22 23:49 | 34.26792 | 136.26306 | 14591 ft | 375 kts | 36° |
| 2026-04-22 23:49 | 34.28864 | 136.28192 | 14016 ft | 372 kts | 36° |
| 2026-04-22 23:50 | 34.30932 | 136.30076 | 13382 ft | 369 kts | 36° |
| 2026-04-22 23:50 | 34.32965 | 136.31932 | 12874 ft | 362 kts | 36° |
| 2026-04-22 23:50 | 34.34953 | 136.33747 | 12343 ft | 356 kts | 36° |
| 2026-04-22 23:50 | 34.36919 | 136.35543 | 11849 ft | 350 kts | 36° |
| 2026-04-22 23:51 | 34.38852 | 136.37310 | 11352 ft | 346 kts | 36° |
| 2026-04-22 23:51 | 34.40761 | 136.39063 | 10869 ft | 342 kts | 39° |
| 2026-04-22 23:51 | 34.42287 | 136.41163 | 10780 ft | 322 kts | 60° |
| 2026-04-22 23:51 | 34.43263 | 136.43505 | 10831 ft | 300 kts | 68° |
| 2026-04-22 23:52 | 34.44057 | 136.45730 | 10855 ft | 277 kts | 69° |
| 2026-04-22 23:52 | 34.44784 | 136.47809 | 10769 ft | 258 kts | 69° |
| 2026-04-22 23:52 | 34.45466 | 136.49741 | 10648 ft | 241 kts | 69° |
| 2026-04-22 23:52 | 34.46122 | 136.51580 | 10305 ft | 237 kts | 69° |
| 2026-04-22 23:53 | 34.46769 | 136.53384 | 9881 ft | 237 kts | 68° |
| 2026-04-22 23:53 | 34.47428 | 136.55205 | 9458 ft | 235 kts | 68° |
| 2026-04-22 23:53 | 34.48079 | 136.56994 | 9058 ft | 231 kts | 68° |
| 2026-04-22 23:53 | 34.48725 | 136.58770 | 8641 ft | 228 kts | 68° |
| 2026-04-22 23:54 | 34.49358 | 136.60507 | 8248 ft | 224 kts | 68° |
| 2026-04-22 23:54 | 34.49981 | 136.62221 | 7886 ft | 219 kts | 69° |
| 2026-04-22 23:54 | 34.50573 | 136.63840 | 7733 ft | 204 kts | 69° |
| 2026-04-22 23:54 | 34.51141 | 136.65399 | 7396 ft | 201 kts | 69° |
| 2026-04-22 23:55 | 34.51701 | 136.66937 | 7063 ft | 197 kts | 69° |
| 2026-04-22 23:55 | 34.52250 | 136.68444 | 6723 ft | 194 kts | 69° |
| 2026-04-22 23:55 | 34.52789 | 136.69927 | 6404 ft | 190 kts | 69° |
| 2026-04-22 23:55 | 34.53319 | 136.71385 | 6053 ft | 188 kts | 69° |
| 2026-04-22 23:56 | 34.53844 | 136.72829 | 5691 ft | 187 kts | 69° |
| 2026-04-22 23:56 | 34.54364 | 136.74262 | 5340 ft | 186 kts | 69° |
| 2026-04-22 23:56 | 34.54883 | 136.75693 | 5049 ft | 184 kts | 69° |
| 2026-04-22 23:56 | 34.55375 | 136.77047 | 4770 ft | 182 kts | 69° |
| 2026-04-22 23:57 | 34.55884 | 136.78450 | 4463 ft | 181 kts | 69° |
| 2026-04-22 23:57 | 34.56390 | 136.79844 | 4147 ft | 180 kts | 69° |
| 2026-04-22 23:57 | 34.56893 | 136.81231 | 3864 ft | 178 kts | 69° |
| 2026-04-22 23:57 | 34.57373 | 136.82555 | 3913 ft | 170 kts | 69° |
| 2026-04-22 23:58 | 34.57854 | 136.83882 | 3971 ft | 174 kts | 69° |
| 2026-04-22 23:58 | 34.58404 | 136.85207 | 3961 ft | 178 kts | 52° |
| 2026-04-22 23:58 | 34.59399 | 136.86079 | 3969 ft | 180 kts | 18° |
| 2026-04-22 23:58 | 34.60634 | 136.86079 | 4011 ft | 181 kts | 355° |
| 2026-04-22 23:59 | 34.61892 | 136.85971 | 3998 ft | 175 kts | 359° |
| 2026-04-22 23:59 | 34.63068 | 136.85876 | 4026 ft | 167 kts | 356° |
| 2026-04-22 23:59 | 34.64221 | 136.85697 | 3995 ft | 168 kts | 353° |
| 2026-04-22 23:59 | 34.65367 | 136.85461 | 3785 ft | 169 kts | 351° |
| 2026-04-23 00:00 | 34.67642 | 136.84932 | 3345 ft | 165 kts | 350° |
| 2026-04-23 00:00 | 34.68400 | 136.84750 | 3197 ft | 164 kts | 350° |
| 2026-04-23 00:00 | 34.69868 | 136.84395 | 2903 ft | 161 kts | 351° |
| 2026-04-23 00:01 | 34.70965 | 136.84130 | 2699 ft | 160 kts | 351° |
| 2026-04-23 00:01 | 34.72053 | 136.83868 | 2493 ft | 159 kts | 351° |
| 2026-04-23 00:01 | 34.73140 | 136.83606 | 2287 ft | 160 kts | 351° |
| 2026-04-23 00:01 | 34.74245 | 136.83339 | 2074 ft | 164 kts | 351° |
| 2026-04-23 00:02 | 34.75360 | 136.83069 | 1835 ft | 161 kts | 351° |
| 2026-04-23 00:02 | 34.76448 | 136.82806 | 1624 ft | 158 kts | 351° |
| 2026-04-23 00:02 | 34.77516 | 136.82549 | 1407 ft | 155 kts | 351° |
| 2026-04-23 00:02 | 34.78571 | 136.82294 | 1208 ft | 154 kts | 350° |
| 2026-04-23 00:03 | 34.79621 | 136.82040 | 985 ft | 153 kts | 350° |
| 2026-04-23 00:03 | 34.80655 | 136.81791 | 788 ft | 149 kts | 349° |
| 2026-04-23 00:03 | 34.81664 | 136.81547 | 583 ft | 146 kts | 349° |
| 2026-04-23 00:03 | 34.82647 | 136.81309 | 389 ft | 142 kts | 349° |
| 2026-04-23 00:04 | 34.83595 | 136.81080 | 211 ft | 140 kts | 348° |
| 2026-04-23 00:04 | 34.84517 | 136.80859 | 58 ft | 131 kts | 348° |
| 2026-04-23 00:04 | 34.85314 | 136.80666 | 25 ft | 86 kts | 348° |
| 2026-04-23 00:04 | 34.85595 | 136.80595 | 21 ft | 26 kts | 348° |
| 2026-04-23 00:05 | 34.85769 | 136.80581 | 23 ft | 24 kts | 11° |
| 2026-04-23 00:05 | 34.85892 | 136.80621 | 25 ft | 17 kts | 18° |
| 2026-04-23 00:05 | 34.85988 | 136.80660 | 28 ft | 13 kts | 27° |
| 2026-04-23 00:05 | 34.86029 | 136.80747 | 27 ft | 12 kts | 79° |
| 2026-04-23 00:06 | 34.86045 | 136.80849 | 27 ft | 12 kts | 79° |
| 2026-04-23 00:06 | 34.86061 | 136.80947 | 27 ft | 12 kts | 77° |
| 2026-04-23 00:06 | 34.86078 | 136.81043 | 28 ft | 11 kts | 79° |
| 2026-04-23 00:06 | 34.86096 | 136.81127 | 28 ft | 9 kts | 57° |
| 2026-04-23 00:07 | 34.86151 | 136.81149 | 28 ft | 9 kts | 353° |
| 2026-04-23 00:07 | 34.86210 | 136.81136 | 28 ft | 8 kts | 348° |
| 2026-04-23 00:07 | 34.86265 | 136.81122 | 28 ft | 6 kts | 348° |
| 2026-04-23 00:07 | 34.86293 | 136.81134 | 28 ft | 4 kts | 68° |
| 2026-04-23 00:08 | 34.86293 | 136.81168 | 28 ft | 4 kts | 88° |
| 2026-04-23 00:08 | 34.86294 | 136.81190 | 28 ft | 4 kts | 87° |
| 2026-04-23 00:08 | 34.86294 | 136.81205 | 28 ft | 0 kts | 86° |